createdAt,value
2022-09-22T00:01:05.693Z,14.10
2022-09-22T00:06:13.628Z,14.10
2022-09-22T00:11:19.869Z,14.00
2022-09-22T00:16:27.029Z,13.90
2022-09-22T00:21:30.991Z,13.80
2022-09-22T00:26:35.531Z,13.60
2022-09-22T00:31:39.901Z,13.60
2022-09-22T00:36:42.949Z,13.50
2022-09-22T00:41:48.346Z,13.40
2022-09-22T00:46:57.015Z,13.40
2022-09-22T00:52:00.771Z,13.40
2022-09-22T00:57:21.360Z,13.40
2022-09-22T01:02:24.346Z,13.30
2022-09-22T01:07:30.826Z,13.20
2022-09-22T01:12:35.849Z,13.10
2022-09-22T01:18:01.274Z,13.00
2022-09-22T01:23:24.342Z,13.20
2022-09-22T01:28:40.312Z,13.30
2022-09-22T01:33:57.995Z,13.20
2022-09-22T01:39:23.892Z,13.40
2022-09-22T01:44:37.922Z,13.30
2022-09-22T01:49:47.868Z,13.30
2022-09-22T01:54:58.882Z,13.20
2022-09-22T02:00:05.695Z,13.40
2022-09-22T02:05:23.281Z,13.20
2022-09-22T02:10:33.800Z,13.10
2022-09-22T02:15:55.064Z,12.90
2022-09-22T02:20:58.605Z,12.90
2022-09-22T02:26:01.946Z,12.80
2022-09-22T02:31:22.532Z,12.70
2022-09-22T02:37:00.514Z,12.80
2022-09-22T02:42:27.838Z,12.90
2022-09-22T02:47:45.993Z,12.90
2022-09-22T02:52:52.313Z,13.00
2022-09-22T02:57:54.942Z,13.00
2022-09-22T03:02:57.458Z,13.00
2022-09-22T03:08:00.070Z,12.90
2022-09-22T03:13:16.471Z,12.90
2022-09-22T03:18:19.723Z,12.80
2022-09-22T03:23:22.539Z,12.50
2022-09-22T03:28:25.116Z,12.70
2022-09-22T03:33:31.009Z,12.50
2022-09-22T03:38:33.647Z,12.70
2022-09-22T03:43:36.474Z,12.60
2022-09-22T03:48:44.209Z,12.70
2022-09-22T03:53:47.887Z,12.70
2022-09-22T03:58:50.460Z,12.40
2022-09-22T04:03:53.189Z,11.70
2022-09-22T04:08:55.889Z,10.80
2022-09-22T04:13:59.841Z,10.90
2022-09-22T04:19:04.834Z,11.00
2022-09-22T04:24:11.421Z,10.70
2022-09-22T04:29:13.965Z,11.20
2022-09-22T04:34:16.637Z,11.30
2022-09-22T04:39:23.555Z,11.20
2022-09-22T04:44:26.496Z,11.20
2022-09-22T04:49:29.065Z,11.30
2022-09-22T04:54:32.414Z,11.30
2022-09-22T04:59:35.235Z,11.20
2022-09-22T05:04:38.650Z,11.30
2022-09-22T05:09:41.328Z,11.30
2022-09-22T05:14:43.934Z,11.40
2022-09-22T05:19:46.681Z,11.30
2022-09-22T05:24:49.382Z,11.30
2022-09-22T05:29:52.033Z,11.30
2022-09-22T05:39:57.972Z,11.30
2022-09-22T05:45:00.571Z,11.20
2022-09-22T05:50:03.770Z,11.00
2022-09-22T05:55:07.504Z,11.10
2022-09-22T06:00:11.340Z,11.10
2022-09-22T06:05:19.349Z,10.90
2022-09-22T06:10:22.455Z,10.80
2022-09-22T06:15:25.900Z,10.80
2022-09-22T06:20:29.149Z,10.60
2022-09-22T06:25:32.957Z,10.40
2022-09-22T06:30:39.014Z,10.90
2022-09-22T06:35:42.727Z,11.30
2022-09-22T06:40:45.634Z,11.50
2022-09-22T06:45:51.021Z,11.70
2022-09-22T06:50:54.589Z,11.70
2022-09-22T06:56:01.921Z,11.80
2022-09-22T07:01:09.639Z,11.90
2022-09-22T07:06:20.373Z,12.20
2022-09-22T07:11:25.925Z,12.30
2022-09-22T07:16:28.662Z,12.40
2022-09-22T07:21:35.201Z,12.20
2022-09-22T07:26:39.551Z,12.40
2022-09-22T07:31:43.102Z,12.60
2022-09-22T07:36:46.309Z,12.70
2022-09-22T07:41:49.138Z,12.80
2022-09-22T07:46:51.782Z,13.00
2022-09-22T07:51:54.978Z,13.00
2022-09-22T07:57:00.876Z,13.10
2022-09-22T08:02:03.483Z,13.30
2022-09-22T08:07:06.087Z,13.50
2022-09-22T08:12:09.990Z,13.60
2022-09-22T08:17:12.926Z,13.60
2022-09-22T08:22:15.660Z,13.50
2022-09-22T08:27:18.959Z,13.60
2022-09-22T08:32:21.600Z,13.70
2022-09-22T08:37:25.035Z,13.80
2022-09-22T08:42:28.505Z,13.90
2022-09-22T08:48:04.252Z,14.00
2022-09-22T08:53:09.913Z,14.10
2022-09-22T08:58:51.096Z,14.40
2022-09-22T09:04:11.109Z,14.50
2022-09-22T09:09:19.938Z,14.50
2022-09-22T09:14:57.943Z,14.60
2022-09-22T09:20:23.586Z,14.60
2022-09-22T09:25:41.556Z,14.80
2022-09-22T09:30:51.790Z,14.80
2022-09-22T09:35:55.923Z,15.00
2022-09-22T09:41:23.200Z,15.00
2022-09-22T09:46:54.863Z,15.40
2022-09-22T09:52:01.126Z,15.40
2022-09-22T09:57:10.319Z,15.50
2022-09-22T10:02:21.763Z,15.80
2022-09-22T10:07:39.419Z,15.80
2022-09-22T10:12:42.017Z,15.90
2022-09-22T10:17:44.839Z,16.10
2022-09-22T10:22:48.335Z,16.20
2022-09-22T10:28:06.785Z,16.40
2022-09-22T10:33:22.771Z,16.40
2022-09-22T10:38:29.386Z,16.60
2022-09-22T10:44:34.994Z,16.80
2022-09-22T10:49:46.446Z,16.80
2022-09-22T10:55:01.956Z,17.20
2022-09-22T11:00:17.777Z,17.30
2022-09-22T11:05:48.442Z,17.60
2022-09-22T11:11:37.369Z,17.60
2022-09-22T11:16:48.125Z,17.80
2022-09-22T11:22:24.083Z,17.80
2022-09-22T11:27:39.408Z,17.90
2022-09-22T11:32:54.065Z,17.80
2022-09-22T11:38:20.219Z,17.90
2022-09-22T11:43:59.220Z,18.20
2022-09-22T11:49:29.393Z,18.40
2022-09-22T11:55:02.729Z,18.30
2022-09-22T12:00:17.201Z,18.80
2022-09-22T12:05:26.876Z,19.00
2022-09-22T12:10:35.159Z,18.90
2022-09-22T12:15:49.567Z,18.60
2022-09-22T12:21:05.541Z,18.50
2022-09-22T12:26:11.482Z,18.70
2022-09-22T12:31:19.550Z,19.00
2022-09-22T12:36:39.632Z,19.10
2022-09-22T12:41:57.590Z,18.70
2022-09-22T12:47:17.385Z,18.90
2022-09-22T12:52:41.979Z,19.50
2022-09-22T12:57:47.895Z,19.40
2022-09-22T13:02:50.719Z,19.40
2022-09-22T13:07:55.655Z,19.60
2022-09-22T13:13:09.224Z,19.30
2022-09-22T13:18:39.294Z,19.70
2022-09-22T13:23:51.433Z,20.30
2022-09-22T13:29:17.957Z,20.40
2022-09-22T13:34:32.000Z,19.50
2022-09-22T13:39:40.400Z,19.70
2022-09-22T13:44:51.401Z,20.10
2022-09-22T13:49:56.590Z,19.70
2022-09-22T13:55:31.505Z,19.50
2022-09-22T14:01:08.675Z,19.10
2022-09-22T14:06:12.620Z,19.60
2022-09-22T14:11:21.283Z,19.70
2022-09-22T14:16:35.383Z,19.60
2022-09-22T14:21:57.146Z,19.80
2022-09-22T14:27:04.259Z,19.50
2022-09-22T14:32:40.655Z,19.40
2022-09-22T14:37:48.485Z,19.90
2022-09-22T14:43:18.899Z,19.80
2022-09-22T14:48:28.707Z,20.40
2022-09-22T14:53:41.517Z,20.00
2022-09-22T14:58:50.461Z,19.80
2022-09-22T15:04:03.754Z,19.80
2022-09-22T15:09:13.130Z,19.80
2022-09-22T15:14:41.509Z,20.10
2022-09-22T15:19:44.243Z,19.90
2022-09-22T15:24:46.874Z,19.80
2022-09-22T15:29:54.798Z,19.50
2022-09-22T15:34:58.036Z,19.10
2022-09-22T15:40:16.239Z,19.20
2022-09-22T15:45:23.784Z,18.70
2022-09-22T15:50:30.657Z,18.50
2022-09-22T15:55:33.466Z,18.30
2022-09-22T16:00:37.117Z,18.20
2022-09-22T16:05:40.915Z,18.10
2022-09-22T16:10:45.005Z,18.20
2022-09-22T16:15:50.341Z,18.30
2022-09-22T16:21:03.080Z,18.10
2022-09-22T16:26:05.626Z,18.00
2022-09-22T16:31:11.255Z,17.90
2022-09-22T16:36:14.044Z,17.90
2022-09-22T16:41:23.966Z,17.90
2022-09-22T16:46:28.843Z,18.00
2022-09-22T16:51:34.133Z,17.90
2022-09-22T16:56:37.962Z,17.70
2022-09-22T17:01:43.431Z,17.70
2022-09-22T17:06:47.219Z,17.70
2022-09-22T17:11:50.642Z,17.60
2022-09-22T17:16:57.241Z,17.60
2022-09-22T17:22:00.005Z,17.40
2022-09-22T17:27:02.858Z,17.20
2022-09-22T17:32:07.857Z,17.10
2022-09-22T17:37:14.039Z,17.20
2022-09-22T17:42:16.744Z,17.50
2022-09-22T17:47:38.032Z,17.70
2022-09-22T17:52:59.161Z,18.00
2022-09-22T17:58:01.805Z,18.20
2022-09-22T18:03:04.444Z,18.30
2022-09-22T18:08:07.721Z,18.50
2022-09-22T18:13:10.269Z,18.50
2022-09-22T18:18:12.973Z,18.40
2022-09-22T18:23:16.603Z,18.60
2022-09-22T18:28:23.481Z,18.60
2022-09-22T18:33:26.429Z,18.50
2022-09-22T18:38:29.782Z,18.40
2022-09-22T18:43:32.441Z,18.20
2022-09-22T18:48:36.074Z,18.30
2022-09-22T18:53:38.997Z,17.90
2022-09-22T18:58:41.799Z,17.90
2022-09-22T19:03:44.876Z,17.80
2022-09-22T19:08:48.819Z,17.70
2022-09-22T19:13:52.711Z,17.80
2022-09-22T19:18:55.585Z,17.80
2022-09-22T19:23:59.192Z,17.90
2022-09-22T19:29:05.973Z,17.90
2022-09-22T19:34:09.410Z,17.90
2022-09-22T19:39:12.070Z,17.80
2022-09-22T19:44:17.119Z,17.70
2022-09-22T19:49:21.653Z,17.80
2022-09-22T19:54:24.770Z,17.60
2022-09-22T19:59:27.317Z,17.30
2022-09-22T20:04:33.847Z,17.00
2022-09-22T20:09:36.701Z,17.00
2022-09-22T20:14:39.374Z,16.90
2022-09-22T20:19:43.624Z,16.80
2022-09-22T20:24:53.805Z,16.70
2022-09-22T20:29:57.625Z,16.70
2022-09-22T20:35:00.270Z,16.70
2022-09-22T20:40:03.461Z,16.50
2022-09-22T20:45:07.749Z,16.50
2022-09-22T20:50:11.800Z,16.60
2022-09-22T20:55:14.556Z,16.80
2022-09-22T21:00:17.278Z,16.90
2022-09-22T21:05:20.107Z,16.90
2022-09-22T21:10:35.268Z,16.90
2022-09-22T21:15:38.445Z,16.80
2022-09-22T21:20:41.335Z,16.70
2022-09-22T21:25:43.934Z,16.60
2022-09-22T21:30:54.991Z,16.30
2022-09-22T21:36:15.551Z,16.00
2022-09-22T21:41:20.454Z,16.20
2022-09-22T21:46:26.141Z,16.20
2022-09-22T21:51:34.144Z,16.20
2022-09-22T21:56:37.041Z,16.30
2022-09-22T22:01:42.199Z,16.30
2022-09-22T22:06:46.141Z,16.30
2022-09-22T22:11:55.351Z,16.00
2022-09-22T22:16:57.973Z,15.80
2022-09-22T22:22:00.653Z,15.80
2022-09-22T22:27:06.790Z,15.70
2022-09-22T22:32:10.475Z,15.80
2022-09-22T22:37:13.172Z,15.70
2022-09-22T22:42:15.674Z,15.70
2022-09-22T22:47:18.272Z,15.60
2022-09-22T22:52:21.025Z,15.60
2022-09-22T22:57:26.367Z,15.60
2022-09-22T23:02:30.440Z,15.40
2022-09-22T23:07:33.063Z,15.50
2022-09-22T23:12:36.128Z,15.40
2022-09-22T23:17:39.337Z,15.60
2022-09-22T23:22:41.903Z,15.70
2022-09-22T23:27:48.284Z,15.40
2022-09-22T23:32:50.884Z,15.10
2022-09-22T23:37:53.542Z,15.10
2022-09-22T23:42:56.189Z,15.20
2022-09-22T23:47:58.811Z,15.20
2022-09-22T23:53:01.461Z,15.20
2022-09-22T23:58:05.127Z,15.20
